Eastern Galaxy — DUCH — position and weather

sailwx.info

Track history (hours):
 
Tides and Currents Weather Stations Pressure Air Temp Water Temp Dewpoint Dewpoint Depression Visibility Wind Speed Wind Dir Waves Ship Positions

Eastern Galaxy

Last reported at 2014-Aug-13 19:11 UTC. Time now 2014-Aug-30 02:28 UTC.
Position N 34°15' E 138°10'.
Warning: this ship's position is 16 days out of date.

Length 100 m; draft 5.9 m.

Type: Cargo ship. MMSI: 548829000.

Date/timePositionNaut miles runAvg speedWind from/ knotsBaromVisibWave heightAir tempDewpointWater temp
2014-Aug-13 19:11N 34°15' E 138°10'812.9
2014-Aug-13 18:33N 34°18' E 138°19'5211.7
2014-Aug-13 14:08N 34°46' E 139°12'812.9
2014-Aug-13 13:31N 34°52' E 139°18'1111.8
2014-Aug-13 12:33N 34°58' E 139°30'1211.5
2014-Aug-13 11:33N 35°04' E 139°42'1010.0
2014-Aug-13 10:33N 35°14' E 139°46'10 9.7
2014-Aug-13 09:34N 35°23' E 139°42'5 4.5
2014-Aug-13 08:32N 35°27' E 139°41'0 0.0
2014-Aug-13 07:32N 35°27' E 139°41'0 0.0
2014-Aug-13 06:32N 35°27' E 139°41'0 0.0
2014-Aug-13 05:32N 35°27' E 139°41'0 0.0
2014-Aug-13 04:32N 35°27' E 139°41'0 0.0
2014-Aug-13 03:32N 35°27' E 139°41'0 0.0
2014-Aug-13 02:32N 35°27' E 139°41'0 0.0
2014-Aug-13 01:32N 35°27' E 139°41'0 0.0
2014-Aug-13 00:32N 35°27' E 139°41'0 0.0
2014-Aug-12 23:32N 35°27' E 139°41'0 0.0
2014-Aug-12 22:32N 35°27' E 139°41'0 0.0
2014-Aug-12 21:32N 35°27' E 139°41'0 0.0
2014-Aug-12 20:32N 35°27' E 139°41'0 0.0
2014-Aug-12 19:32N 35°27' E 139°41'0 0.0
2014-Aug-12 18:32N 35°27' E 139°41'0 0.0
2014-Aug-12 17:32N 35°27' E 139°41'0 0.0
2014-Aug-12 16:32N 35°27' E 139°41'0 0.0
2014-Aug-12 15:32N 35°27' E 139°41'0 0.0
2014-Aug-12 14:32N 35°27' E 139°41'0 0.0
2014-Aug-12 13:32N 35°27' E 139°41'0 0.0
2014-Aug-12 12:32N 35°27' E 139°41'0 0.0
2014-Aug-12 11:32N 35°27' E 139°41'0 0.0
2014-Aug-12 10:32N 35°27' E 139°41'0 0.0
2014-Aug-12 09:32N 35°27' E 139°41'0 0.0
2014-Aug-12 08:32N 35°27' E 139°41'0 0.0
2014-Aug-12 07:32N 35°27' E 139°41'0 0.0
2014-Aug-12 06:32N 35°27' E 139°41'0 0.0
2014-Aug-12 05:32N 35°27' E 139°41'0 0.0
2014-Aug-12 04:32N 35°27' E 139°41'0 0.0
2014-Aug-12 03:32N 35°27' E 139°41'0 0.0
2014-Aug-12 02:32N 35°27' E 139°41'0 0.0
2014-Aug-12 01:32N 35°27' E 139°41'1 0.5
2014-Aug-12 00:34N 35°27' E 139°41'1 1.3
2014-Aug-11 23:33N 35°26' E 139°42'0 0.0
2014-Aug-11 22:33N 35°26' E 139°42'0 0.1
2014-Aug-11 21:33N 35°26' E 139°42'0 0.1
2014-Aug-11 20:31N 35°26' E 139°42'0 0.0
2014-Aug-11 19:31N 35°26' E 139°42'0 0.0
2014-Aug-11 18:31N 35°26' E 139°42'0 0.0
2014-Aug-11 17:31N 35°26' E 139°42'0 0.0
2014-Aug-11 16:31N 35°26' E 139°42'0 0.0
2014-Aug-11 15:28N 35°26' E 139°42'5 4.9
2014-Aug-11 14:33N 35°21' E 139°43'1111.4
2014-Aug-11 13:33N 35°10' E 139°47'1212.2
2014-Aug-11 12:33N 35°00' E 139°38'1613.4
2014-Aug-11 11:23N 34°51' E 139°23'22710.8
2014-Aug-10 14:30N 33°56' E 134°56'9 9.6
2014-Aug-10 13:33N 34°05' E 134°57'1110.6
2014-Aug-10 12:33N 34°16' E 134°59'8 7.6
2014-Aug-10 11:33N 34°23' E 135°03'2 2.2
2014-Aug-10 10:32N 34°24' E 135°05'0 0.0
2014-Aug-10 09:32N 34°24' E 135°05'0 0.0
2014-Aug-10 08:32N 34°24' E 135°05'0 0.0
2014-Aug-10 07:32N 34°24' E 135°05'0 0.0
2014-Aug-10 06:32N 34°24' E 135°05'0 0.0
2014-Aug-10 05:20N 34°24' E 135°05'0 0.1
2014-Aug-10 04:32N 34°24' E 135°05'0 0.1
2014-Aug-10 03:33N 34°24' E 135°05'0 0.3
2014-Aug-10 02:33N 34°24' E 135°05'1 1.0
2014-Aug-10 01:33N 34°24' E 135°06'0 0.3
2014-Aug-10 00:22N 34°23' E 135°06'0 0.1
2014-Aug-09 23:28N 34°23' E 135°06'0 0.1
2014-Aug-09 22:28N 34°23' E 135°06'0 0.0
2014-Aug-09 21:22N 34°23' E 135°06'0 0.0
2014-Aug-09 20:28N 34°23' E 135°06'0 0.0
2014-Aug-09 19:28N 34°23' E 135°06'0 0.0
2014-Aug-09 18:22N 34°23' E 135°06'0 0.0
2014-Aug-09 17:28N 34°23' E 135°06'0 0.0
2014-Aug-09 16:28N 34°23' E 135°06'0 0.0
2014-Aug-09 15:28N 34°23' E 135°06'0 0.0
2014-Aug-09 14:22N 34°23' E 135°06'0 0.1
2014-Aug-09 13:28N 34°23' E 135°06'0 0.0
2014-Aug-09 11:28N 34°23' E 135°06'0 0.1
2014-Aug-09 10:33N 34°23' E 135°06'0 0.0
2014-Aug-09 07:04N 34°23' E 135°06'0 0.0
2014-Aug-09 05:22N 34°23' E 135°06'0 0.0
2014-Aug-09 04:28N 34°23' E 135°06'0 0.0
2014-Aug-09 03:28N 34°23' E 135°06'0 0.0
2014-Aug-09 02:04N 34°23' E 135°06'0 0.0
2014-Aug-09 01:16N 34°23' E 135°06'0 0.0
2014-Aug-09 00:22N 34°23' E 135°06'0 0.0
2014-Aug-08 23:28N 34°23' E 135°06'0 0.0
2014-Aug-08 22:10N 34°23' E 135°06'0 0.0
2014-Aug-08 20:04N 34°23' E 135°06'0 0.1
2014-Aug-08 19:28N 34°23' E 135°06'0 0.0
2014-Aug-08 17:04N 34°23' E 135°06'0 0.0
2014-Aug-08 15:28N 34°23' E 135°06'0 0.0
2014-Aug-08 14:28N 34°23' E 135°06'0 0.1
2014-Aug-08 13:28N 34°23' E 135°06'0 0.0
2014-Aug-08 12:28N 34°23' E 135°06'0 0.0
2014-Aug-08 11:28N 34°23' E 135°06'0 0.0
2014-Aug-08 09:10N 34°23' E 135°06'0 0.1
2014-Aug-08 07:28N 34°23' E 135°06'0 0.0
2014-Aug-08 06:22N 34°23' E 135°06'0 0.1
2014-Aug-08 05:22N 34°23' E 135°06'0 0.0
2014-Aug-08 03:10N 34°23' E 135°06'0 0.0
2014-Aug-08 02:22N 34°23' E 135°06'0 0.0
2014-Aug-08 01:28N 34°23' E 135°06'0 0.0
2014-Aug-08 00:28N 34°23' E 135°06'0 0.0
2014-Aug-07 23:28N 34°23' E 135°06'0 0.1
2014-Aug-07 22:22N 34°23' E 135°06'0 0.0
2014-Aug-07 21:28N 34°23' E 135°06'0 0.0
2014-Aug-07 20:28N 34°23' E 135°06'0 0.0
2014-Aug-07 19:28N 34°23' E 135°06'0 0.0
2014-Aug-07 18:22N 34°23' E 135°06'0 0.1
2014-Aug-07 17:28N 34°23' E 135°06'0 0.0
2014-Aug-07 16:04N 34°23' E 135°06'0 0.1
2014-Aug-07 15:25N 34°23' E 135°06'5 6.3
2014-Aug-07 14:33N 34°20' E 135°00'9 9.0
2014-Aug-07 13:33N 34°27' E 135°08'1211.8
2014-Aug-07 12:33N 34°35' E 135°18'7 7.3
2014-Aug-07 11:33N 34°39' E 135°26'0 0.0
2014-Aug-07 10:31N 34°39' E 135°26'0 0.0
2014-Aug-07 09:31N 34°39' E 135°26'0 0.0
2014-Aug-07 08:31N 34°39' E 135°26'0 0.0
2014-Aug-07 07:31N 34°39' E 135°26'0 0.0
2014-Aug-07 06:31N 34°39' E 135°26'0 0.0
2014-Aug-07 05:31N 34°39' E 135°26'0 0.0
2014-Aug-07 04:19N 34°39' E 135°26'0 0.1
2014-Aug-07 03:31N 34°39' E 135°26'0 0.0
2014-Aug-07 02:31N 34°39' E 135°26'0 0.0
2014-Aug-07 01:31N 34°39' E 135°26'0 0.0
2014-Aug-07 00:25N 34°39' E 135°26'0 0.1
2014-Aug-06 23:31N 34°39' E 135°26'2 2.2
2014-Aug-06 22:33N 34°38' E 135°23'5 4.9
2014-Aug-06 21:33N 34°36' E 135°18'1010.0
2014-Aug-06 20:32N 34°28' E 135°10'1313.0
2014-Aug-06 19:33N 34°19' E 134°60'1212.2
2014-Aug-06 18:33N 34°06' E 134°59'  
Track history (hours):
 
Tides and Currents Weather Stations Pressure Air Temp Water Temp Dewpoint Dewpoint Depression Visibility Wind Speed Wind Dir Waves Ship Positions

Eastern Galaxy

Last reported at 2014-Aug-13 19:11 UTC. Time now 2014-Aug-30 02:28 UTC.
Position N 34°15' E 138°10'.
Warning: this ship's position is 16 days out of date.

Length 100 m; draft 5.9 m.

Type: Cargo ship. MMSI: 548829000.

Date/timePositionNaut miles runAvg speedWind from/ knotsBaromVisibWave heightAir tempDewpointWater temp
2014-Aug-13 19:11N 34°15' E 138°10'812.9
2014-Aug-13 18:33N 34°18' E 138°19'5211.7
2014-Aug-13 14:08N 34°46' E 139°12'812.9
2014-Aug-13 13:31N 34°52' E 139°18'1111.8
2014-Aug-13 12:33N 34°58' E 139°30'1211.5
2014-Aug-13 11:33N 35°04' E 139°42'1010.0
2014-Aug-13 10:33N 35°14' E 139°46'10 9.7
2014-Aug-13 09:34N 35°23' E 139°42'5 4.5
2014-Aug-13 08:32N 35°27' E 139°41'0 0.0
2014-Aug-13 07:32N 35°27' E 139°41'0 0.0
2014-Aug-13 06:32N 35°27' E 139°41'0 0.0
2014-Aug-13 05:32N 35°27' E 139°41'0 0.0
2014-Aug-13 04:32N 35°27' E 139°41'0 0.0
2014-Aug-13 03:32N 35°27' E 139°41'0 0.0
2014-Aug-13 02:32N 35°27' E 139°41'0 0.0
2014-Aug-13 01:32N 35°27' E 139°41'0 0.0
2014-Aug-13 00:32N 35°27' E 139°41'0 0.0
2014-Aug-12 23:32N 35°27' E 139°41'0 0.0
2014-Aug-12 22:32N 35°27' E 139°41'0 0.0
2014-Aug-12 21:32N 35°27' E 139°41'0 0.0
2014-Aug-12 20:32N 35°27' E 139°41'0 0.0
2014-Aug-12 19:32N 35°27' E 139°41'0 0.0
2014-Aug-12 18:32N 35°27' E 139°41'0 0.0
2014-Aug-12 17:32N 35°27' E 139°41'0 0.0
2014-Aug-12 16:32N 35°27' E 139°41'0 0.0
2014-Aug-12 15:32N 35°27' E 139°41'0 0.0
2014-Aug-12 14:32N 35°27' E 139°41'0 0.0
2014-Aug-12 13:32N 35°27' E 139°41'0 0.0
2014-Aug-12 12:32N 35°27' E 139°41'0 0.0
2014-Aug-12 11:32N 35°27' E 139°41'0 0.0
2014-Aug-12 10:32N 35°27' E 139°41'0 0.0
2014-Aug-12 09:32N 35°27' E 139°41'0 0.0
2014-Aug-12 08:32N 35°27' E 139°41'0 0.0
2014-Aug-12 07:32N 35°27' E 139°41'0 0.0
2014-Aug-12 06:32N 35°27' E 139°41'0 0.0
2014-Aug-12 05:32N 35°27' E 139°41'0 0.0
2014-Aug-12 04:32N 35°27' E 139°41'0 0.0
2014-Aug-12 03:32N 35°27' E 139°41'0 0.0
2014-Aug-12 02:32N 35°27' E 139°41'0 0.0
2014-Aug-12 01:32N 35°27' E 139°41'1 0.5
2014-Aug-12 00:34N 35°27' E 139°41'1 1.3
2014-Aug-11 23:33N 35°26' E 139°42'0 0.0
2014-Aug-11 22:33N 35°26' E 139°42'0 0.1
2014-Aug-11 21:33N 35°26' E 139°42'0 0.1
2014-Aug-11 20:31N 35°26' E 139°42'0 0.0
2014-Aug-11 19:31N 35°26' E 139°42'0 0.0
2014-Aug-11 18:31N 35°26' E 139°42'0 0.0
2014-Aug-11 17:31N 35°26' E 139°42'0 0.0
2014-Aug-11 16:31N 35°26' E 139°42'0 0.0
2014-Aug-11 15:28N 35°26' E 139°42'5 4.9
2014-Aug-11 14:33N 35°21' E 139°43'1111.4
2014-Aug-11 13:33N 35°10' E 139°47'1212.2
2014-Aug-11 12:33N 35°00' E 139°38'1613.4
2014-Aug-11 11:23N 34°51' E 139°23'22710.8
2014-Aug-10 14:30N 33°56' E 134°56'9 9.6
2014-Aug-10 13:33N 34°05' E 134°57'1110.6
2014-Aug-10 12:33N 34°16' E 134°59'8 7.6
2014-Aug-10 11:33N 34°23' E 135°03'2 2.2
2014-Aug-10 10:32N 34°24' E 135°05'0 0.0
2014-Aug-10 09:32N 34°24' E 135°05'0 0.0
2014-Aug-10 08:32N 34°24' E 135°05'0 0.0
2014-Aug-10 07:32N 34°24' E 135°05'0 0.0
2014-Aug-10 06:32N 34°24' E 135°05'0 0.0
2014-Aug-10 05:20N 34°24' E 135°05'0 0.1
2014-Aug-10 04:32N 34°24' E 135°05'0 0.1
2014-Aug-10 03:33N 34°24' E 135°05'0 0.3
2014-Aug-10 02:33N 34°24' E 135°05'1 1.0
2014-Aug-10 01:33N 34°24' E 135°06'0 0.3
2014-Aug-10 00:22N 34°23' E 135°06'0 0.1
2014-Aug-09 23:28N 34°23' E 135°06'0 0.1
2014-Aug-09 22:28N 34°23' E 135°06'0 0.0
2014-Aug-09 21:22N 34°23' E 135°06'0 0.0
2014-Aug-09 20:28N 34°23' E 135°06'0 0.0
2014-Aug-09 19:28N 34°23' E 135°06'0 0.0
2014-Aug-09 18:22N 34°23' E 135°06'0 0.0
2014-Aug-09 17:28N 34°23' E 135°06'0 0.0
2014-Aug-09 16:28N 34°23' E 135°06'0 0.0
2014-Aug-09 15:28N 34°23' E 135°06'0 0.0
2014-Aug-09 14:22N 34°23' E 135°06'0 0.1
2014-Aug-09 13:28N 34°23' E 135°06'0 0.0
2014-Aug-09 11:28N 34°23' E 135°06'0 0.1
2014-Aug-09 10:33N 34°23' E 135°06'0 0.0
2014-Aug-09 07:04N 34°23' E 135°06'0 0.0
2014-Aug-09 05:22N 34°23' E 135°06'0 0.0
2014-Aug-09 04:28N 34°23' E 135°06'0 0.0
2014-Aug-09 03:28N 34°23' E 135°06'0 0.0
2014-Aug-09 02:04N 34°23' E 135°06'0 0.0
2014-Aug-09 01:16N 34°23' E 135°06'0 0.0
2014-Aug-09 00:22N 34°23' E 135°06'0 0.0
2014-Aug-08 23:28N 34°23' E 135°06'0 0.0
2014-Aug-08 22:10N 34°23' E 135°06'0 0.0
2014-Aug-08 20:04N 34°23' E 135°06'0 0.1
2014-Aug-08 19:28N 34°23' E 135°06'0 0.0
2014-Aug-08 17:04N 34°23' E 135°06'0 0.0
2014-Aug-08 15:28N 34°23' E 135°06'0 0.0
2014-Aug-08 14:28N 34°23' E 135°06'0 0.1
2014-Aug-08 13:28N 34°23' E 135°06'0 0.0
2014-Aug-08 12:28N 34°23' E 135°06'0 0.0
2014-Aug-08 11:28N 34°23' E 135°06'0 0.0
2014-Aug-08 09:10N 34°23' E 135°06'0 0.1
2014-Aug-08 07:28N 34°23' E 135°06'0 0.0
2014-Aug-08 06:22N 34°23' E 135°06'0 0.1
2014-Aug-08 05:22N 34°23' E 135°06'0 0.0
2014-Aug-08 03:10N 34°23' E 135°06'0 0.0
2014-Aug-08 02:22N 34°23' E 135°06'0 0.0
2014-Aug-08 01:28N 34°23' E 135°06'0 0.0
2014-Aug-08 00:28N 34°23' E 135°06'0 0.0
2014-Aug-07 23:28N 34°23' E 135°06'0 0.1
2014-Aug-07 22:22N 34°23' E 135°06'0 0.0
2014-Aug-07 21:28N 34°23' E 135°06'0 0.0
2014-Aug-07 20:28N 34°23' E 135°06'0 0.0
2014-Aug-07 19:28N 34°23' E 135°06'0 0.0
2014-Aug-07 18:22N 34°23' E 135°06'0 0.1
2014-Aug-07 17:28N 34°23' E 135°06'0 0.0
2014-Aug-07 16:04N 34°23' E 135°06'0 0.1
2014-Aug-07 15:25N 34°23' E 135°06'5 6.3
2014-Aug-07 14:33N 34°20' E 135°00'9 9.0
2014-Aug-07 13:33N 34°27' E 135°08'1211.8
2014-Aug-07 12:33N 34°35' E 135°18'7 7.3
2014-Aug-07 11:33N 34°39' E 135°26'0 0.0
2014-Aug-07 10:31N 34°39' E 135°26'0 0.0
2014-Aug-07 09:31N 34°39' E 135°26'0 0.0
2014-Aug-07 08:31N 34°39' E 135°26'0 0.0
2014-Aug-07 07:31N 34°39' E 135°26'0 0.0
2014-Aug-07 06:31N 34°39' E 135°26'0 0.0
2014-Aug-07 05:31N 34°39' E 135°26'0 0.0
2014-Aug-07 04:19N 34°39' E 135°26'0 0.1
2014-Aug-07 03:31N 34°39' E 135°26'0 0.0
2014-Aug-07 02:31N 34°39' E 135°26'0 0.0
2014-Aug-07 01:31N 34°39' E 135°26'0 0.0
2014-Aug-07 00:25N 34°39' E 135°26'0 0.1
2014-Aug-06 23:31N 34°39' E 135°26'2 2.2
2014-Aug-06 22:33N 34°38' E 135°23'5 4.9
2014-Aug-06 21:33N 34°36' E 135°18'1010.0
2014-Aug-06 20:32N 34°28' E 135°10'1313.0
2014-Aug-06 19:33N 34°19' E 134°60'1212.2
2014-Aug-06 18:33N 34°06' E 134°59'  

Dump ship's entire track history